Time;durP1;ratioP1;P1;durP2;ratioP2;P2;SDS_P1;SDS_P2;PMS_P1;PMS_P2;Temp;Humidity;BMP_temperature;BMP_pressure;BME280_temperature;BME280_humidity;BME280_pressure;Samples;Min_cycle;Max_cycle;Signal;HPM_P1;HPM_P2
2023/03/28 00:01:07;;;;;;;0.30;0.30;;;;;;;9.94;100.00;93953.13;5132300;27;20785;-55
2023/03/28 00:03:38;;;;;;;0.40;0.20;;;;;;;9.87;100.00;93963.31;5131806;28;20433;-56
2023/03/28 00:06:09;;;;;;;0.30;0.20;;;;;;;10.19;100.00;93959.75;5131772;27;21046;-55
2023/03/28 00:08:39;;;;;;;0.40;0.37;;;;;;;9.32;100.00;93936.16;5132014;27;20845;-55
2023/03/28 00:11:11;;;;;;;0.50;0.30;;;;;;;9.89;100.00;93965.69;5132115;27;20442;-55
2023/03/28 00:13:40;;;;;;;0.30;0.20;;;;;;;9.32;100.00;93906.28;5131455;27;20479;-55
2023/03/28 00:16:11;;;;;;;0.30;0.20;;;;;;;9.79;100.00;93976.50;5132099;28;21122;-55
2023/03/28 00:18:41;;;;;;;0.30;0.20;;;;;;;9.84;100.00;93966.56;5131762;28;20434;-55
2023/03/28 00:21:22;;;;;;;0.30;0.20;;;;;;;9.67;100.00;93976.19;5131776;28;20943;-55
2023/03/28 00:23:52;;;;;;;0.40;0.30;;;;;;;8.90;100.00;93897.56;5131665;28;20845;-55
2023/03/28 00:26:25;;;;;;;0.30;0.20;;;;;;;9.45;100.00;93980.34;5131994;28;20801;-55
2023/03/28 00:28:54;;;;;;;0.30;0.30;;;;;;;9.72;100.00;93978.72;5131694;28;20495;-55
2023/03/28 00:31:24;;;;;;;0.30;0.20;;;;;;;9.71;100.00;93888.03;5131349;28;20435;-55
2023/03/28 00:33:53;;;;;;;0.30;0.20;;;;;;;10.35;100.00;93981.38;5131607;28;20479;-55
2023/03/28 00:36:25;;;;;;;0.30;0.20;;;;;;;10.31;99.85;93977.75;5131427;28;20820;-55
2023/03/28 00:38:54;;;;;;;0.30;0.20;;;;;;;10.17;98.50;93978.56;5133352;27;20903;-55
2023/03/28 00:41:25;;;;;;;0.40;0.40;;;;;;;10.53;94.62;93972.47;5135154;27;20518;-55
2023/03/28 00:43:55;;;;;;;0.30;0.20;;;;;;;10.76;93.10;93969.53;5135467;27;20442;-55
2023/03/28 00:46:28;;;;;;;0.30;0.20;;;;;;;10.52;91.15;93969.06;5135115;27;20871;-55
2023/03/28 00:49:01;;;;;;;0.30;0.20;;;;;;;10.80;92.44;93964.41;5135338;27;20526;-54
2023/03/28 00:51:34;;;;;;;0.30;0.20;;;;;;;10.51;92.20;93964.84;5108272;27;20934;-55
2023/03/28 00:54:03;;;;;;;1.70;1.70;;;;;;;10.52;93.01;93969.06;5135058;27;20474;-55
2023/03/28 00:56:38;;;;;;;0.30;0.20;;;;;;;10.58;93.59;93967.84;5135600;27;20438;-55
2023/03/28 00:59:09;;;;;;;2.73;0.30;;;;;;;10.06;92.81;93977.22;5135041;27;20946;-55
2023/03/28 01:01:38;;;;;;;0.30;0.20;;;;;;;10.43;93.40;93970.06;5124856;27;20449;-55
2023/03/28 01:04:08;;;;;;;0.40;0.30;;;;;;;10.19;96.06;93955.22;5131837;27;20813;-55
2023/03/28 01:06:41;;;;;;;2.00;0.30;;;;;;;10.26;96.59;93960.13;5135182;27;20454;-55
2023/03/28 01:09:10;;;;;;;0.30;0.20;;;;;;;10.08;92.17;93897.50;5134745;27;20442;-55
2023/03/28 01:11:41;;;;;;;0.80;0.50;;;;;;;9.58;95.05;93891.47;5135317;27;20463;-55
2023/03/28 01:14:12;;;;;;;0.30;0.20;;;;;;;9.82;97.13;93894.66;5135010;27;20474;-55
2023/03/28 01:16:41;;;;;;;0.40;0.30;;;;;;;10.13;100.00;93971.53;5135116;27;20507;-55
2023/03/28 01:19:20;;;;;;;1.23;0.67;;;;;;;9.52;100.00;93970.13;5134700;27;21095;-55
2023/03/28 01:22:26;;;;;;;0.30;0.30;;;;;;;9.55;100.00;93915.88;5134135;27;20454;-55
2023/03/28 01:25:27;;;;;;;0.30;0.20;;;;;;;10.28;100.00;93963.25;5134139;27;20526;-55
2023/03/28 01:28:03;;;;;;;0.30;0.20;;;;;;;9.17;98.77;93841.31;5134893;27;20806;-55
2023/03/28 01:31:06;;;;;;;0.30;0.20;;;;;;;9.82;100.00;93929.03;5113270;27;20871;-55
2023/03/28 01:34:10;;;;;;;0.30;0.20;;;;;;;10.66;97.89;93963.69;5133701;27;20512;-54
2023/03/28 01:37:14;;;;;;;0.30;0.20;;;;;;;10.64;99.48;93960.56;5134312;27;20441;-55
2023/03/28 01:40:05;;;;;;;0.40;0.30;;;;;;;10.07;100.00;93964.75;5091381;27;20809;-55
2023/03/28 01:42:45;;;;;;;0.30;0.20;;;;;;;10.23;100.00;93981.13;5133957;27;21013;-55
2023/03/28 01:45:19;;;;;;;1.27;1.17;;;;;;;9.61;100.00;93986.13;5134482;27;20438;-55
2023/03/28 01:47:55;;;;;;;0.50;0.30;;;;;;;9.57;100.00;93990.41;5133932;27;20441;-56
2023/03/28 01:50:30;;;;;;;0.37;0.27;;;;;;;9.18;100.00;93990.91;5133192;27;20445;-56
2023/03/28 01:53:04;;;;;;;0.40;0.30;;;;;;;9.48;100.00;94000.13;5133324;27;20984;-56
2023/03/28 01:55:39;;;;;;;0.30;0.30;;;;;;;9.45;100.00;93993.56;5134148;27;20438;-56
2023/03/28 01:58:15;;;;;;;0.50;0.50;;;;;;;9.29;100.00;94004.69;5110132;27;20438;-56
2023/03/28 02:00:49;;;;;;;0.30;0.20;;;;;;;9.10;100.00;94012.72;5133819;27;20530;-54
2023/03/28 02:03:23;;;;;;;1.07;0.60;;;;;;;9.51;100.00;94013.50;5133985;27;20442;-55
2023/03/28 02:05:55;;;;;;;0.30;0.20;;;;;;;9.19;100.00;94012.81;5133806;27;20429;-55
2023/03/28 02:08:28;;;;;;;0.40;0.30;;;;;;;9.57;100.00;94006.28;5134036;27;20442;-55
2023/03/28 02:10:58;;;;;;;0.40;0.30;;;;;;;9.32;100.00;93998.81;5107184;27;20442;-55
2023/03/28 02:13:33;;;;;;;0.30;0.20;;;;;;;9.68;97.70;93991.78;5133360;27;20472;-55
2023/03/28 02:16:05;;;;;;;0.50;0.50;;;;;;;9.94;90.92;94000.75;5133765;27;20444;-55
2023/03/28 02:18:36;;;;;;;0.30;0.20;;;;;;;9.66;86.80;94009.81;5119770;27;20441;-55
2023/03/28 02:21:08;;;;;;;0.53;0.37;;;;;;;9.27;86.12;93972.47;5133785;27;20455;-55
2023/03/28 02:23:41;;;;;;;0.30;0.30;;;;;;;9.06;83.51;94032.84;5133349;27;20473;-55
2023/03/28 02:26:11;;;;;;;0.30;0.20;;;;;;;8.88;84.91;94033.69;5133355;27;20524;-55
2023/03/28 02:28:42;;;;;;;0.40;0.30;;;;;;;8.60;85.21;94027.53;5133379;27;20469;-55
2023/03/28 02:31:10;;;;;;;0.40;0.30;;;;;;;8.83;85.19;94021.34;5133411;27;20441;-55
2023/03/28 02:33:41;;;;;;;0.30;0.20;;;;;;;8.78;89.50;94024.06;5125125;27;20482;-55
2023/03/28 02:36:27;;;;;;;0.30;0.30;;;;;;;8.74;81.88;94046.88;5128155;27;20445;-55
2023/03/28 02:39:09;;;;;;;0.40;0.40;;;;;;;8.55;86.00;94064.56;5133336;27;20468;-55
2023/03/28 02:41:52;;;;;;;0.30;0.20;;;;;;;8.02;88.43;94060.53;5127335;27;20510;-55
2023/03/28 02:44:37;;;;;;;0.30;0.20;;;;;;;7.99;80.32;94061.09;5127225;27;20446;-55
2023/03/28 02:47:16;;;;;;;0.50;0.50;;;;;;;7.97;79.13;94063.25;5121377;27;20442;-55
2023/03/28 02:49:57;;;;;;;0.50;0.40;;;;;;;7.78;79.69;94065.03;5132198;27;20437;-55
2023/03/28 02:52:33;;;;;;;0.30;0.20;;;;;;;7.98;78.02;94080.63;5132753;27;20799;-55
2023/03/28 02:55:14;;;;;;;0.30;0.30;;;;;;;7.59;77.85;94086.88;5132896;27;20529;-55
2023/03/28 02:57:48;;;;;;;0.30;0.30;;;;;;;7.54;77.33;94108.00;5132815;27;20428;-55
2023/03/28 03:00:19;;;;;;;0.40;0.30;;;;;;;7.57;78.25;94099.53;5131768;27;20440;-55
2023/03/28 03:02:50;;;;;;;0.90;0.70;;;;;;;7.67;77.26;94096.81;5105348;27;20531;-55
2023/03/28 03:05:20;;;;;;;1.07;1.07;;;;;;;7.33;77.09;94104.03;5132185;27;20440;-56
2023/03/28 03:07:50;;;;;;;0.40;0.30;;;;;;;7.29;78.76;94052.91;5133224;27;20523;-55
2023/03/28 03:10:20;;;;;;;0.40;0.30;;;;;;;7.44;77.77;94071.22;5118553;27;20441;-55
2023/03/28 03:12:49;;;;;;;0.30;0.30;;;;;;;7.49;79.37;94073.00;5132962;27;20434;-55
2023/03/28 03:15:17;;;;;;;0.40;0.30;;;;;;;7.79;77.12;94100.91;5118944;27;20475;-55
2023/03/28 03:17:46;;;;;;;0.70;0.70;;;;;;;6.87;76.80;94034.34;5132599;27;20481;-55
2023/03/28 03:20:14;;;;;;;0.30;0.20;;;;;;;7.30;77.15;94112.47;5132395;27;20483;-56
2023/03/28 03:22:43;;;;;;;0.40;0.30;;;;;;;7.21;75.39;94116.75;5132100;27;20457;-56
2023/03/28 03:25:12;;;;;;;0.63;0.63;;;;;;;7.40;75.72;94120.28;5132195;27;20502;-55
2023/03/28 03:27:43;;;;;;;0.80;0.80;;;;;;;6.95;76.27;94113.56;5132801;27;20790;-55
2023/03/28 03:30:12;;;;;;;0.30;0.30;;;;;;;6.82;77.49;94119.47;5132350;27;20438;-56
2023/03/28 03:32:42;;;;;;;0.30;0.30;;;;;;;7.14;77.92;94112.88;5132503;27;20440;-55
2023/03/28 03:35:11;;;;;;;0.30;0.20;;;;;;;6.42;74.90;94040.78;5105015;27;20871;-55
2023/03/28 03:37:40;;;;;;;0.40;0.40;;;;;;;7.08;75.31;94114.78;5132266;27;20501;-56
2023/03/28 03:40:09;;;;;;;0.30;0.20;;;;;;;7.26;75.42;94124.63;5106428;27;20466;-56
2023/03/28 03:42:38;;;;;;;0.30;0.20;;;;;;;7.32;74.84;94123.53;5131934;27;20467;-56
2023/03/28 03:45:10;;;;;;;0.30;0.20;;;;;;;7.13;73.75;94133.19;5132062;28;20445;-56
2023/03/28 03:47:38;;;;;;;2.60;0.40;;;;;;;7.37;73.20;94128.75;5130498;27;20440;-56
2023/03/28 03:50:08;;;;;;;0.60;0.33;;;;;;;7.07;71.52;94128.22;5130948;28;20443;-56
2023/03/28 03:52:37;;;;;;;0.30;0.20;;;;;;;7.36;71.98;94142.22;5132217;28;20479;-56
2023/03/28 03:55:06;;;;;;;0.40;0.30;;;;;;;7.10;70.30;94144.28;5131911;28;20476;-56
2023/03/28 03:57:34;;;;;;;0.60;0.30;;;;;;;7.05;71.41;94141.69;5132248;28;20444;-56
2023/03/28 04:00:10;;;;;;;0.53;0.30;;;;;;;7.16;71.18;94140.50;5121324;28;20444;-56
2023/03/28 04:02:40;;;;;;;0.40;0.30;;;;;;;6.61;69.05;94156.72;5131021;28;20441;-56
2023/03/28 04:05:09;;;;;;;0.30;0.20;;;;;;;6.58;72.11;94158.03;5132279;28;20435;-57
2023/03/28 04:07:37;;;;;;;0.40;0.30;;;;;;;5.91;71.31;94111.28;5132401;28;20434;-56
2023/03/28 04:10:07;;;;;;;0.40;0.30;;;;;;;6.19;71.81;94165.88;5132126;27;20437;-57
2023/03/28 04:12:35;;;;;;;0.47;0.30;;;;;;;5.53;70.92;94099.56;5131714;28;20823;-56
2023/03/28 04:15:05;;;;;;;0.30;0.30;;;;;;;5.53;71.02;94151.31;5135225;27;20550;-56
2023/03/28 04:17:33;;;;;;;0.50;0.50;;;;;;;6.25;70.91;94174.50;5135825;27;21009;-55
2023/03/28 04:20:10;;;;;;;0.40;0.30;;;;;;;6.03;69.62;94174.88;5135834;27;20441;-55
2023/03/28 04:22:38;;;;;;;0.30;0.20;;;;;;;5.65;70.12;94157.06;5135461;27;20436;-56
2023/03/28 04:25:13;;;;;;;0.40;0.30;;;;;;;5.48;69.54;94122.44;5130461;27;20437;-56
2023/03/28 04:27:45;;;;;;;2.00;1.13;;;;;;;5.00;70.65;94087.84;5126786;27;20445;-56
2023/03/28 04:30:16;;;;;;;0.40;0.30;;;;;;;5.82;70.43;94172.56;5136120;27;20508;-56
2023/03/28 04:32:48;;;;;;;0.30;0.20;;;;;;;5.33;70.27;94131.13;5134976;27;20519;-56
2023/03/28 04:35:18;;;;;;;0.50;0.50;;;;;;;6.31;73.08;94189.25;5135566;27;20473;-56
2023/03/28 04:37:48;;;;;;;0.30;0.20;;;;;;;5.91;68.91;94134.16;5135210;27;20483;-56
2023/03/28 04:40:16;;;;;;;1.60;0.60;;;;;;;6.34;70.44;94193.97;5135629;27;20436;-56
2023/03/28 04:42:45;;;;;;;3.37;0.73;;;;;;;6.46;69.65;94193.63;5134861;27;20441;-56
2023/03/28 04:45:14;;;;;;;0.40;0.40;;;;;;;5.88;68.74;94198.59;5135489;27;20540;-56
2023/03/28 04:47:45;;;;;;;0.57;0.57;;;;;;;6.25;70.00;94206.09;5134897;27;20895;-55
2023/03/28 04:50:13;;;;;;;0.30;0.30;;;;;;;6.52;69.72;94213.63;5135138;27;20791;-56
2023/03/28 04:52:43;;;;;;;0.40;0.30;;;;;;;6.43;68.38;94207.34;5134882;27;20436;-55
2023/03/28 04:55:11;;;;;;;0.40;0.30;;;;;;;6.43;70.70;94233.66;5135054;27;20465;-55
2023/03/28 04:57:40;;;;;;;0.50;0.50;;;;;;;6.56;69.78;94230.44;5134636;27;20443;-55
2023/03/28 05:00:11;;;;;;;0.40;0.30;;;;;;;6.68;78.76;94252.00;5133557;27;20545;-55
2023/03/28 05:02:39;;;;;;;10.00;0.60;;;;;;;7.06;74.95;94242.56;5134390;27;20538;-55
2023/03/28 05:05:09;;;;;;;5.70;0.30;;;;;;;7.06;71.96;94235.44;5134593;27;20817;-56
2023/03/28 05:07:37;;;;;;;0.30;0.20;;;;;;;7.13;71.84;94240.41;5134282;27;20439;-55
2023/03/28 05:10:08;;;;;;;0.30;0.20;;;;;;;7.27;70.78;94244.78;5134397;27;20439;-55
2023/03/28 05:12:37;;;;;;;0.40;0.30;;;;;;;7.72;77.00;94248.91;5134219;27;20450;-54
2023/03/28 05:15:06;;;;;;;0.30;0.20;;;;;;;7.32;70.08;94250.03;5133782;27;20468;-55
2023/03/28 05:17:35;;;;;;;0.30;0.20;;;;;;;7.20;70.90;94249.59;5133941;27;20539;-54
2023/03/28 05:20:07;;;;;;;0.40;0.30;;;;;;;6.65;67.06;94240.16;5134753;27;20434;-54
2023/03/28 05:22:35;;;;;;;0.40;0.40;;;;;;;6.67;70.64;94255.69;5134803;27;20458;-54
2023/03/28 05:25:07;;;;;;;0.30;0.20;;;;;;;5.73;67.62;94194.13;5133356;27;20443;-54
2023/03/28 05:27:37;;;;;;;0.63;0.63;;;;;;;6.64;69.47;94266.75;5134570;27;20527;-54
2023/03/28 05:30:06;;;;;;;0.30;0.20;;;;;;;6.68;67.58;94236.19;5134244;27;20435;-55
2023/03/28 05:32:36;;;;;;;0.87;0.60;;;;;;;6.44;67.33;94259.72;5134980;27;20439;-55
2023/03/28 05:35:06;;;;;;;0.40;0.30;;;;;;;6.43;66.54;94265.22;5134120;27;20475;-55
2023/03/28 05:37:35;;;;;;;0.30;0.23;;;;;;;7.04;69.47;94277.06;5134917;27;20436;-55
2023/03/28 05:40:09;;;;;;;0.53;0.50;;;;;;;7.18;72.88;94285.19;5134556;27;20432;-55
2023/03/28 05:42:38;;;;;;;0.30;0.20;;;;;;;6.46;63.49;94239.16;5133627;27;20530;-55
2023/03/28 05:45:09;;;;;;;0.30;0.30;;;;;;;6.99;67.93;94285.78;5134521;27;20439;-54
2023/03/28 05:47:37;;;;;;;0.40;0.40;;;;;;;6.82;61.80;94305.63;5134237;27;20440;-55
2023/03/28 05:50:07;;;;;;;0.40;0.30;;;;;;;6.54;63.92;94282.56;5134282;27;20474;-55
2023/03/28 05:52:35;;;;;;;0.53;0.53;;;;;;;7.31;62.35;94303.78;5134254;27;20442;-55
2023/03/28 05:55:04;;;;;;;0.40;0.30;;;;;;;7.31;61.15;94292.47;5134105;27;20473;-55
2023/03/28 05:57:34;;;;;;;0.40;0.30;;;;;;;7.44;60.25;94279.44;5133820;27;20473;-55
2023/03/28 06:00:12;;;;;;;0.90;0.90;;;;;;;7.08;59.71;94296.56;5133606;27;20511;-55
2023/03/28 06:02:42;;;;;;;0.40;0.40;;;;;;;7.83;58.86;94310.28;5133482;27;20485;-54
2023/03/28 06:05:12;;;;;;;0.30;0.20;;;;;;;8.40;56.88;94299.75;5134008;27;20442;-55
2023/03/28 06:07:41;;;;;;;0.73;0.40;;;;;;;8.78;55.29;94300.66;5133738;27;20467;-54
2023/03/28 06:10:12;;;;;;;0.30;0.20;;;;;;;9.34;55.28;94311.31;5133530;27;20467;-54
2023/03/28 06:12:42;;;;;;;0.40;0.30;;;;;;;9.95;53.92;94305.91;5133628;27;20437;-54
2023/03/28 06:15:11;;;;;;;0.70;0.60;;;;;;;9.19;53.95;94301.72;5133375;27;20442;-54
2023/03/28 06:17:40;;;;;;;0.50;0.50;;;;;;;9.88;53.29;94306.28;5133632;27;20439;-53
2023/03/28 06:20:09;;;;;;;0.40;0.30;;;;;;;9.54;52.21;94260.75;5132770;27;20446;-53
2023/03/28 06:22:38;;;;;;;0.40;0.33;;;;;;;10.44;52.05;94310.66;5132529;27;20458;-54
2023/03/28 06:25:07;;;;;;;0.40;0.30;;;;;;;9.58;50.17;94315.47;5133244;27;20471;-54
2023/03/28 06:27:35;;;;;;;0.33;0.27;;;;;;;10.44;52.74;94308.03;5133141;27;20491;-54
2023/03/28 06:30:06;;;;;;;0.30;0.20;;;;;;;9.55;48.89;94320.53;5132640;27;20959;-54
2023/03/28 06:32:35;;;;;;;0.40;0.40;;;;;;;9.41;49.11;94322.34;5133325;27;20431;-54
2023/03/28 06:35:04;;;;;;;0.30;0.30;;;;;;;9.72;50.70;94326.09;5132986;27;20501;-55
2023/03/28 06:37:32;;;;;;;0.30;0.20;;;;;;;9.98;49.64;94318.56;5133229;27;20565;-55
2023/03/28 06:40:00;;;;;;;0.40;0.30;;;;;;;9.46;48.25;94158.31;5132933;27;20466;-55
2023/03/28 06:42:29;;;;;;;0.60;0.40;;;;;;;10.79;47.99;94325.91;5132726;27;20435;-55
2023/03/28 06:44:57;;;;;;;0.40;0.30;;;;;;;11.08;48.20;94337.00;5132291;27;20491;-55
2023/03/28 06:47:27;;;;;;;0.30;0.20;;;;;;;11.67;46.67;94343.19;5131513;27;20460;-55
2023/03/28 06:49:55;;;;;;;0.50;0.30;;;;;;;12.34;44.75;94349.38;5132429;27;20942;-55
2023/03/28 06:52:24;;;;;;;0.30;0.20;;;;;;;11.75;44.36;94327.38;5132125;27;20493;-55
2023/03/28 06:54:52;;;;;;;0.40;0.40;;;;;;;11.92;42.88;94302.81;5123954;27;20992;-56
2023/03/28 06:57:20;;;;;;;0.30;0.20;;;;;;;12.74;44.28;94351.78;5127247;27;21008;-56
2023/03/28 06:59:50;;;;;;;0.30;0.20;;;;;;;12.82;42.29;94354.78;5131721;27;20807;-56
2023/03/28 07:02:18;;;;;;;0.30;0.20;;;;;;;12.76;40.82;94359.44;5131774;27;20463;-56
2023/03/28 07:04:48;;;;;;;0.30;0.20;;;;;;;13.57;43.22;94368.69;5131843;27;20430;-56
2023/03/28 07:07:17;;;;;;;0.40;0.20;;;;;;;13.11;41.52;94365.72;5131767;27;20510;-57
2023/03/28 07:09:47;;;;;;;0.30;0.20;;;;;;;12.87;42.16;94371.41;5132065;27;20513;-57
2023/03/28 07:12:15;;;;;;;0.70;0.30;;;;;;;14.04;44.23;94371.56;5132270;27;20442;-57
2023/03/28 07:14:45;;;;;;;0.40;0.30;;;;;;;14.85;46.33;94357.19;5132102;27;20476;-57
2023/03/28 07:17:14;;;;;;;0.40;0.30;;;;;;;13.74;41.80;94373.25;5131912;27;20616;-57
2023/03/28 07:19:44;;;;;;;0.30;0.20;;;;;;;14.00;43.03;94366.88;5132326;27;20431;-58
2023/03/28 07:22:13;;;;;;;0.40;0.30;;;;;;;15.05;43.22;94369.09;5132122;27;20516;-58
2023/03/28 07:24:42;;;;;;;0.40;0.30;;;;;;;15.85;42.63;94370.72;5131711;27;20494;-60
2023/03/28 07:27:10;;;;;;;0.30;0.20;;;;;;;16.25;42.13;94371.06;5132335;27;20883;-59
2023/03/28 07:29:44;;;;;;;0.40;0.30;;;;;;;15.67;40.08;94371.94;5132350;27;20525;-60
2023/03/28 07:32:12;;;;;;;0.40;0.20;;;;;;;15.69;42.42;94375.84;5131827;27;20434;-60
2023/03/28 07:34:40;;;;;;;0.40;0.30;;;;;;;14.48;39.35;94387.25;5132030;27;20522;-60
2023/03/28 07:37:10;;;;;;;0.30;0.20;;;;;;;15.31;40.24;94384.97;5131661;27;20485;-60
2023/03/28 07:39:42;;;;;;;0.40;0.30;;;;;;;15.14;38.99;94378.63;5131456;27;20463;-60
2023/03/28 07:42:11;;;;;;;0.40;0.20;;;;;;;14.60;36.92;94382.84;5131959;27;20452;-60
2023/03/28 07:44:40;;;;;;;0.40;0.20;;;;;;;14.97;46.15;94385.91;5131399;27;21016;-59
2023/03/28 07:47:10;;;;;;;0.40;0.40;;;;;;;14.31;37.56;94358.75;5132456;28;20497;-59
2023/03/28 07:49:39;;;;;;;0.40;0.30;;;;;;;15.80;37.03;94370.94;5131173;27;20434;-59
2023/03/28 07:52:08;;;;;;;0.40;0.20;;;;;;;16.28;37.73;94381.91;5132025;28;20564;-60
2023/03/28 07:54:36;;;;;;;0.40;0.20;;;;;;;15.92;36.80;94376.34;5131476;28;20533;-60
2023/03/28 07:57:06;;;;;;;0.40;0.30;;;;;;;15.96;38.33;94379.94;5131610;28;20466;-60
2023/03/28 07:59:34;;;;;;;0.30;0.20;;;;;;;16.86;38.25;94380.13;5132125;28;20448;-58
2023/03/28 08:02:03;;;;;;;0.40;0.30;;;;;;;16.31;35.93;94343.03;5131907;28;20431;-59
2023/03/28 08:04:32;;;;;;;0.40;0.30;;;;;;;17.40;39.13;94376.22;5131705;28;20840;-58
2023/03/28 08:07:01;;;;;;;0.37;0.20;;;;;;;16.51;37.02;94368.94;5131822;27;20435;-58
2023/03/28 08:09:29;;;;;;;0.40;0.40;;;;;;;16.43;36.84;94375.94;5132125;28;20451;-58
2023/03/28 08:11:57;;;;;;;0.40;0.30;;;;;;;15.64;35.85;94367.25;5131609;28;20526;-58
2023/03/28 08:14:27;;;;;;;0.40;0.20;;;;;;;14.83;40.19;94372.75;5131939;27;20445;-59
2023/03/28 08:16:55;;;;;;;0.40;0.30;;;;;;;14.78;39.46;94385.47;5131654;28;20535;-58
2023/03/28 08:19:24;;;;;;;0.30;0.20;;;;;;;14.86;42.89;94385.44;5132221;27;20765;-58
2023/03/28 08:21:52;;;;;;;0.33;0.20;;;;;;;15.71;41.31;94378.97;5131870;27;20894;-58
2023/03/28 08:24:20;;;;;;;0.40;0.30;;;;;;;16.13;37.17;94371.78;5131475;28;20459;-59
2023/03/28 08:27:02;;;;;;;0.50;0.30;;;;;;;17.05;35.39;94377.72;5130868;28;20942;-60
2023/03/28 08:29:32;;;;;;;0.50;0.50;;;;;;;17.69;33.92;94380.56;5131449;28;20445;-58
2023/03/28 08:32:00;;;;;;;0.40;0.30;;;;;;;17.80;33.38;94370.19;5131209;28;20431;-57
2023/03/28 08:34:29;;;;;;;0.40;0.30;;;;;;;18.01;32.07;94373.50;5131228;28;20463;-57
2023/03/28 08:36:58;;;;;;;0.43;0.40;;;;;;;17.34;35.92;94371.38;5131205;28;20509;-56
2023/03/28 08:39:27;;;;;;;0.40;0.20;;;;;;;18.74;34.46;94376.75;5131206;28;20525;-56
2023/03/28 08:42:22;;;;;;;0.40;0.30;;;;;;;18.70;31.58;94370.50;5131911;28;20929;-56
2023/03/28 08:45:11;;;;;;;0.40;0.40;;;;;;;17.00;33.96;94388.66;5131473;28;20491;-55
2023/03/28 08:47:46;;;;;;;0.40;0.30;;;;;;;16.06;34.70;94384.91;5131012;28;20435;-55
2023/03/28 08:50:19;;;;;;;0.40;0.30;;;;;;;17.77;34.36;94379.69;5131615;28;20481;-55
2023/03/28 08:52:48;;;;;;;0.40;0.30;;;;;;;17.57;37.16;94385.94;5130867;28;20434;-54
2023/03/28 08:55:28;;;;;;;0.40;0.30;;;;;;;17.33;33.25;94375.97;5131304;28;20439;-55
2023/03/28 08:57:57;;;;;;;0.40;0.30;;;;;;;17.99;35.97;94381.88;5104006;28;20892;-55
2023/03/28 09:00:30;;;;;;;0.40;0.30;;;;;;;17.39;35.17;94382.66;5118533;27;20531;-55
2023/03/28 09:02:59;;;;;;;0.40;0.30;;;;;;;17.29;33.20;94395.72;5135169;27;21089;-55
2023/03/28 09:05:38;;;;;;;0.40;0.20;;;;;;;17.34;33.36;94404.31;5134855;27;20815;-55
2023/03/28 09:08:26;;;;;;;0.37;0.20;;;;;;;16.38;33.32;94345.94;5134912;27;21085;-55
2023/03/28 09:11:01;;;;;;;0.87;0.87;;;;;;;16.89;33.39;94411.59;5134884;27;20889;-54
2023/03/28 09:13:38;;;;;;;0.43;0.40;;;;;;;16.99;36.89;94355.75;5134865;27;20525;-55
2023/03/28 09:16:21;;;;;;;0.77;0.77;;;;;;;16.94;32.99;94416.72;5133867;27;20471;-55
2023/03/28 09:19:11;;;;;;;0.40;0.30;;;;;;;17.46;36.17;94412.34;5134893;27;20497;-55
2023/03/28 09:21:52;;;;;;;0.40;0.30;;;;;;;16.84;34.26;94411.78;5134043;27;20470;-55
2023/03/28 09:24:51;;;;;;;0.50;0.30;;;;;;;16.17;34.27;94406.66;5133881;27;20470;-55
2023/03/28 09:27:27;;;;;;;0.40;0.30;;;;;;;16.13;33.84;94411.88;5134940;27;20462;-55
2023/03/28 09:30:04;;;;;;;0.40;0.30;;;;;;;16.63;33.94;94413.72;5130085;27;20542;-55
2023/03/28 09:32:37;;;;;;;0.40;0.30;;;;;;;16.25;32.90;94414.63;5125934;27;20441;-55
2023/03/28 09:35:16;;;;;;;0.40;0.20;;;;;;;16.52;35.19;94411.44;5134370;27;20427;-55
2023/03/28 09:37:47;;;;;;;0.40;0.30;;;;;;;17.13;32.03;94425.81;5133379;27;20889;-55
2023/03/28 09:40:22;;;;;;;0.40;0.30;;;;;;;18.22;31.96;94267.63;5126095;27;20440;-55
2023/03/28 09:42:58;;;;;;;0.40;0.30;;;;;;;16.86;32.08;94421.06;5129546;27;20472;-55
2023/03/28 09:45:39;;;;;;;0.30;0.20;;;;;;;18.40;31.32;94429.84;5133447;27;20442;-55
2023/03/28 09:48:20;;;;;;;0.40;0.30;;;;;;;18.63;29.60;94435.50;5134106;27;20431;-55
2023/03/28 09:50:48;;;;;;;1.77;0.40;;;;;;;19.74;31.81;94426.53;5134048;27;20491;-56
2023/03/28 09:53:26;;;;;;;0.40;0.40;;;;;;;21.06;33.04;94431.75;5133760;27;20485;-56
2023/03/28 09:55:57;;;;;;;0.40;0.30;;;;;;;19.63;29.34;94420.91;5134297;27;20881;-57
2023/03/28 09:58:50;;;;;;;0.50;0.50;;;;;;;19.70;29.73;94421.09;5134192;27;20478;-56
2023/03/28 10:01:31;;;;;;;0.40;0.30;;;;;;;18.33;28.68;94420.81;5134139;27;20434;-56
2023/03/28 10:04:02;;;;;;;0.53;0.50;;;;;;;19.60;27.84;94432.38;5133125;27;20430;-54
2023/03/28 10:06:32;;;;;;;1.90;1.80;;;;;;;21.12;29.65;94420.34;5134262;27;20438;-55
2023/03/28 10:09:16;;;;;;;0.50;0.50;;;;;;;20.25;32.39;94426.22;5132844;27;20533;-55
2023/03/28 10:11:47;;;;;;;0.40;0.30;;;;;;;20.47;26.92;94435.53;5133085;27;20488;-55
2023/03/28 10:14:34;;;;;;;0.40;0.27;;;;;;;19.83;28.27;94441.38;5133755;27;20439;-55
2023/03/28 10:17:05;;;;;;;0.30;0.20;;;;;;;18.69;33.12;94361.69;5133446;27;20434;-56
2023/03/28 10:19:39;;;;;;;0.30;0.20;;;;;;;20.34;33.32;94438.72;5133103;27;20485;-56
2023/03/28 10:22:12;;;;;;;0.30;0.20;;;;;;;18.32;28.55;94438.81;5132918;27;20435;-56
2023/03/28 10:24:42;;;;;;;0.40;0.30;;;;;;;18.59;28.73;94447.28;5132768;27;20951;-56
2023/03/28 10:27:17;;;;;;;0.40;0.40;;;;;;;18.08;27.71;94368.34;5133185;27;20438;-56
2023/03/28 10:29:47;;;;;;;0.40;0.30;;;;;;;19.47;29.38;94404.00;5132878;27;20466;-56
2023/03/28 10:32:24;;;;;;;0.40;0.30;;;;;;;20.26;26.87;94427.03;5132910;27;20458;-56
2023/03/28 10:35:03;;;;;;;0.40;0.30;;;;;;;20.35;26.83;94418.72;5132902;27;20435;-56
2023/03/28 10:37:33;;;;;;;0.40;0.30;;;;;;;18.02;27.63;94431.34;5133425;27;20434;-56
2023/03/28 10:40:05;;;;;;;0.37;0.30;;;;;;;17.61;26.89;94430.47;5132636;27;20510;-56
2023/03/28 10:42:41;;;;;;;0.77;0.60;;;;;;;18.62;29.55;94409.78;5132817;27;20865;-56
2023/03/28 10:45:22;;;;;;;0.40;0.30;;;;;;;17.22;28.18;94433.75;5133174;27;20474;-56
2023/03/28 10:47:53;;;;;;;0.40;0.30;;;;;;;17.21;29.87;94440.22;5132810;27;20441;-56
2023/03/28 10:50:38;;;;;;;0.40;0.27;;;;;;;16.95;28.41;94431.69;5133116;27;20435;-56
2023/03/28 10:53:24;;;;;;;0.40;0.27;;;;;;;15.89;29.48;94459.81;5106463;27;20514;-56
2023/03/28 10:56:03;;;;;;;0.40;0.20;;;;;;;16.13;29.88;94459.22;5132373;27;20427;-56
2023/03/28 10:58:36;;;;;;;0.40;0.30;;;;;;;14.91;29.70;94459.97;5132310;27;20472;-57
2023/03/28 11:01:10;;;;;;;0.40;0.30;;;;;;;15.15;28.61;94476.25;5132360;27;20500;-56
2023/03/28 11:03:53;;;;;;;0.87;0.73;;;;;;;15.39;31.51;94470.38;5132357;27;20474;-56
2023/03/28 11:06:29;;;;;;;0.40;0.20;;;;;;;15.26;31.95;94484.72;5109614;27;20521;-58
2023/03/28 11:09:07;;;;;;;0.50;0.30;;;;;;;14.89;31.45;94486.19;5132314;27;20437;-56
2023/03/28 11:12:00;;;;;;;0.40;0.20;;;;;;;13.95;39.49;94491.44;5133064;27;20426;-56
2023/03/28 11:14:50;;;;;;;0.40;0.20;;;;;;;13.91;31.62;94515.22;5110726;27;20443;-55
2023/03/28 11:17:28;;;;;;;0.50;0.30;;;;;;;14.04;32.49;94496.78;5131639;27;20431;-55
2023/03/28 11:20:22;;;;;;;0.40;0.30;;;;;;;13.24;41.80;94532.47;5131554;27;20535;-55
2023/03/28 11:23:10;;;;;;;0.40;0.30;;;;;;;14.06;31.27;94537.22;5131244;27;20501;-55
2023/03/28 11:25:46;;;;;;;0.40;0.30;;;;;;;13.51;42.00;94534.97;5132167;27;20431;-55
2023/03/28 11:28:23;;;;;;;0.40;0.20;;;;;;;13.66;31.84;94534.56;5131878;27;20442;-55
2023/03/28 11:30:56;;;;;;;0.40;0.37;;;;;;;13.51;32.18;94545.59;5132362;27;20434;-55
2023/03/28 11:33:29;;;;;;;0.40;0.30;;;;;;;14.39;31.65;94522.44;5132048;27;20944;-57
2023/03/28 11:36:01;;;;;;;0.83;0.83;;;;;;;13.77;31.24;94557.19;5131346;27;20450;-57
2023/03/28 11:38:35;;;;;;;0.40;0.37;;;;;;;13.16;33.40;94549.97;5104609;27;20611;-56
2023/03/28 11:41:10;;;;;;;0.40;0.30;;;;;;;13.68;29.41;94561.69;5131232;27;20442;-57
2023/03/28 11:43:44;;;;;;;0.40;0.37;;;;;;;13.93;31.82;94545.03;5132187;27;20800;-56
2023/03/28 11:46:18;;;;;;;0.50;0.40;;;;;;;14.20;32.92;94529.88;5131701;27;20484;-56
2023/03/28 11:48:53;;;;;;;0.50;0.30;;;;;;;13.29;29.80;94566.94;5131894;27;21065;-55
2023/03/28 11:51:27;;;;;;;0.97;0.40;;;;;;;13.52;32.34;94549.84;5131786;28;20525;-56
2023/03/28 11:54:01;;;;;;;0.40;0.30;;;;;;;13.02;43.72;94545.75;5131801;27;20440;-56
2023/03/28 11:56:42;;;;;;;0.40;0.30;;;;;;;13.49;30.24;94566.44;5131226;28;20434;-56
2023/03/28 11:59:15;;;;;;;0.43;0.40;;;;;;;12.51;32.42;94548.78;5130718;28;20474;-56
2023/03/28 12:01:48;;;;;;;2.63;0.30;;;;;;;13.14;31.40;94568.09;5131812;28;20443;-56
2023/03/28 12:04:21;;;;;;;0.43;0.30;;;;;;;13.65;31.06;94569.50;5131649;28;20496;-56